Time;durP1;ratioP1;P1;durP2;ratioP2;P2;SDS_P1;SDS_P2;PMS_P1;PMS_P2;Temp;Humidity;BMP_temperature;BMP_pressure;BME280_temperature;BME280_humidity;BME280_pressure;Samples;Min_cycle;Max_cycle;Signal;HPM_P1;HPM_P2
2024/03/03 00:02:00;;;;;;;18.77;15.63;;;;;;;;;;5037425;28;20721;-82
2024/03/03 00:04:26;;;;;;;18.27;16.10;;;;;;;;;;5038522;28;20379;-82
2024/03/03 00:06:52;;;;;;;21.35;17.27;;;;;;;;;;5038623;28;20501;-82
2024/03/03 00:09:20;;;;;;;19.20;16.60;;;;;;;;;;5037992;28;20379;-82
2024/03/03 00:11:46;;;;;;;19.83;16.20;;;;;;;;;;5038290;28;20877;-82
2024/03/03 00:14:13;;;;;;;21.02;17.25;;;;;;;;;;5037592;28;20426;-82
2024/03/03 00:16:42;;;;;;;20.17;16.67;;;;;;;;;;5038099;28;20788;-82
2024/03/03 00:19:08;;;;;;;18.58;16.55;;;;;;;;;;5038349;28;20441;-82
2024/03/03 00:21:34;;;;;;;18.95;15.45;;;;;;;;;;5037953;28;20873;-82
2024/03/03 00:24:01;;;;;;;20.55;16.70;;;;;;;;;;5043091;28;20385;-82
2024/03/03 00:26:27;;;;;;;18.00;16.05;;;;;;;;;;5058347;28;20796;-82
2024/03/03 00:28:53;;;;;;;20.70;17.15;;;;;;;;;;5057897;28;20381;-83
2024/03/03 00:31:19;;;;;;;21.33;17.17;;;;;;;;;;5058213;28;20377;-82
2024/03/03 00:33:45;;;;;;;20.13;16.55;;;;;;;;;;5057913;28;20931;-82
2024/03/03 00:36:12;;;;;;;19.65;16.30;;;;;;;;;;5057781;28;20386;-82
2024/03/03 00:38:38;;;;;;;21.17;16.92;;;;;;;;;;5057997;28;20783;-82
2024/03/03 00:41:07;;;;;;;19.60;16.60;;;;;;;;;;5057444;28;20443;-82
2024/03/03 00:43:33;;;;;;;22.00;17.17;;;;;;;;;;5057960;28;20376;-82
2024/03/03 00:45:59;;;;;;;21.63;16.83;;;;;;;;;;5057759;28;20374;-82
2024/03/03 00:48:25;;;;;;;22.38;17.75;;;;;;;;;;5057100;28;20877;-82
2024/03/03 00:50:51;;;;;;;21.83;17.45;;;;;;;;;;5057640;28;20844;-82
2024/03/03 00:53:18;;;;;;;19.88;16.85;;;;;;;;;;5056944;28;20388;-82
2024/03/03 00:55:48;;;;;;;20.98;17.20;;;;;;;;;;5057294;28;20382;-82
2024/03/03 00:58:14;;;;;;;20.38;16.88;;;;;;;;;;5057592;28;20381;-82
2024/03/03 01:00:40;;;;;;;23.63;18.17;;;;;;;;;;5057511;28;20401;-82
2024/03/03 01:03:06;;;;;;;21.02;17.63;;;;;;;;;;5057397;28;20381;-82
2024/03/03 01:05:32;;;;;;;25.02;18.35;;;;;;;;;;5057087;28;20396;-82
2024/03/03 01:07:58;;;;;;;22.27;17.92;;;;;;;;;;5057394;28;20452;-82
2024/03/03 01:10:24;;;;;;;23.50;18.73;;;;;;;;;;5057203;28;20382;-82
2024/03/03 01:12:50;;;;;;;21.98;18.23;;;;;;;;;;5056380;28;20744;-82
2024/03/03 01:15:16;;;;;;;24.08;20.20;;;;;;;;;;5057712;28;20389;-82
2024/03/03 01:17:42;;;;;;;24.50;19.17;;;;;;;;;;5056703;28;20378;-82
2024/03/03 01:20:09;;;;;;;23.30;18.83;;;;;;;;;;5057039;28;20405;-82
2024/03/03 01:22:36;;;;;;;23.67;19.55;;;;;;;;;;5056943;28;20390;-82
2024/03/03 01:25:02;;;;;;;22.10;18.77;;;;;;;;;;5057327;28;20473;-82
2024/03/03 01:27:29;;;;;;;25.77;19.63;;;;;;;;;;5056889;28;20385;-82
2024/03/03 01:29:55;;;;;;;25.33;18.98;;;;;;;;;;5057081;28;20385;-82
2024/03/03 01:32:23;;;;;;;26.45;19.42;;;;;;;;;;5056352;28;20461;-82
2024/03/03 01:34:50;;;;;;;27.08;21.25;;;;;;;;;;5056789;28;20417;-82
2024/03/03 01:37:19;;;;;;;26.73;20.83;;;;;;;;;;5056752;28;20397;-82
2024/03/03 01:39:46;;;;;;;28.75;20.75;;;;;;;;;;5054928;28;20465;-82
2024/03/03 01:42:12;;;;;;;26.37;20.73;;;;;;;;;;5036545;28;20439;-82
2024/03/03 01:44:38;;;;;;;23.95;19.30;;;;;;;;;;5036687;28;20383;-82
2024/03/03 01:47:05;;;;;;;26.08;20.30;;;;;;;;;;5035670;28;20398;-82
2024/03/03 01:49:34;;;;;;;24.48;19.30;;;;;;;;;;5035958;28;20482;-82
2024/03/03 01:52:01;;;;;;;24.63;19.90;;;;;;;;;;5036193;28;20482;-82
2024/03/03 01:54:27;;;;;;;23.90;19.42;;;;;;;;;;5048469;28;20398;-82
2024/03/03 01:56:54;;;;;;;24.23;19.88;;;;;;;;;;5056469;28;20385;-82
2024/03/03 01:59:20;;;;;;;24.50;18.67;;;;;;;;;;5056158;28;20382;-82
2024/03/03 02:01:46;;;;;;;22.60;18.40;;;;;;;;;;5055992;28;20507;-82
2024/03/03 02:04:13;;;;;;;22.85;18.48;;;;;;;;;;5056380;28;20370;-82
2024/03/03 02:06:41;;;;;;;22.55;17.65;;;;;;;;;;5056019;28;20378;-82
2024/03/03 02:09:07;;;;;;;20.48;16.60;;;;;;;;;;5053982;28;20381;-82
2024/03/03 02:11:33;;;;;;;20.38;17.33;;;;;;;;;;5054226;28;20386;-82
2024/03/03 02:14:00;;;;;;;21.08;18.25;;;;;;;;;;5054414;28;20415;-82
2024/03/03 02:16:26;;;;;;;20.70;17.20;;;;;;;;;;5054078;28;20385;-82
2024/03/03 02:18:52;;;;;;;19.77;16.55;;;;;;;;;;5054122;28;20378;-82
2024/03/03 02:21:24;;;;;;;23.50;18.30;;;;;;;;;;5053785;28;20453;-82
2024/03/03 02:23:51;;;;;;;20.88;17.50;;;;;;;;;;5053441;28;20396;-82
2024/03/03 02:26:19;;;;;;;23.65;18.85;;;;;;;;;;5053889;28;20382;-82
2024/03/03 02:28:45;;;;;;;21.52;17.42;;;;;;;;;;5053995;28;20393;-82
2024/03/03 02:31:11;;;;;;;23.03;18.93;;;;;;;;;;5054114;28;20393;-82
2024/03/03 02:33:37;;;;;;;26.73;19.75;;;;;;;;;;5054062;28;20391;-82
2024/03/03 02:36:03;;;;;;;26.15;19.88;;;;;;;;;;5054004;28;20378;-82
2024/03/03 02:38:29;;;;;;;24.90;19.55;;;;;;;;;;5054052;28;20390;-82
2024/03/03 02:40:55;;;;;;;23.98;18.63;;;;;;;;;;5054230;28;20412;-82
2024/03/03 02:43:21;;;;;;;22.67;18.50;;;;;;;;;;5054288;28;20378;-82
2024/03/03 02:45:47;;;;;;;25.45;19.80;;;;;;;;;;5053776;28;20709;-82
2024/03/03 02:48:13;;;;;;;24.10;19.23;;;;;;;;;;5053970;28;20397;-82
2024/03/03 02:50:39;;;;;;;23.25;18.60;;;;;;;;;;5053867;28;20389;-82
2024/03/03 02:53:05;;;;;;;23.20;18.50;;;;;;;;;;5054116;28;20854;-82
2024/03/03 02:55:31;;;;;;;25.88;18.83;;;;;;;;;;5053776;28;20377;-82
2024/03/03 02:57:57;;;;;;;22.35;18.40;;;;;;;;;;5053893;28;20867;-82
2024/03/03 03:00:24;;;;;;;21.27;17.65;;;;;;;;;;5053562;28;20894;-82
2024/03/03 03:02:50;;;;;;;22.58;17.77;;;;;;;;;;5053610;28;20381;-82
2024/03/03 03:05:16;;;;;;;23.80;18.10;;;;;;;;;;5053674;28;20840;-82
2024/03/03 03:07:42;;;;;;;22.80;17.20;;;;;;;;;;5052917;28;20722;-81
2024/03/03 03:10:08;;;;;;;22.50;18.13;;;;;;;;;;5052987;28;20464;-82
2024/03/03 03:12:34;;;;;;;22.37;17.70;;;;;;;;;;5052883;28;20404;-82
2024/03/03 03:15:00;;;;;;;22.25;17.15;;;;;;;;;;5053936;28;20863;-82
2024/03/03 03:17:26;;;;;;;22.10;17.65;;;;;;;;;;5053422;28;20386;-82
2024/03/03 03:19:52;;;;;;;26.25;18.52;;;;;;;;;;5053734;28;20902;-82
2024/03/03 03:22:18;;;;;;;22.00;17.23;;;;;;;;;;5053540;28;20441;-82
2024/03/03 03:24:44;;;;;;;22.50;17.65;;;;;;;;;;5053398;28;20384;-82
2024/03/03 03:27:10;;;;;;;23.67;18.63;;;;;;;;;;5053254;28;20381;-82
2024/03/03 03:29:36;;;;;;;22.57;17.80;;;;;;;;;;5053599;28;20831;-82
2024/03/03 03:32:02;;;;;;;22.52;17.85;;;;;;;;;;5053617;28;20464;-82
2024/03/03 03:34:28;;;;;;;21.05;16.92;;;;;;;;;;5046326;28;20379;-82
2024/03/03 03:36:55;;;;;;;22.30;17.37;;;;;;;;;;5035763;28;20466;-82
2024/03/03 03:39:21;;;;;;;22.95;18.08;;;;;;;;;;5036890;28;20407;-82
2024/03/03 03:41:48;;;;;;;25.52;18.65;;;;;;;;;;5037248;28;20424;-82
2024/03/03 03:44:15;;;;;;;23.98;18.20;;;;;;;;;;5037070;28;20380;-82
2024/03/03 03:46:42;;;;;;;25.15;19.38;;;;;;;;;;5037083;28;20378;-82
2024/03/03 03:49:11;;;;;;;24.35;18.52;;;;;;;;;;5036988;28;20876;-82
2024/03/03 03:51:38;;;;;;;24.57;18.93;;;;;;;;;;5037353;28;20818;-82
2024/03/03 03:54:04;;;;;;;22.98;17.63;;;;;;;;;;5037208;28;20389;-82
2024/03/03 03:56:33;;;;;;;21.65;18.17;;;;;;;;;;5056663;28;20720;-82
2024/03/03 03:58:59;;;;;;;23.70;18.05;;;;;;;;;;5056892;28;20382;-82
2024/03/03 04:01:27;;;;;;;21.77;18.33;;;;;;;;;;5056692;28;20427;-82
2024/03/03 04:03:53;;;;;;;22.08;18.08;;;;;;;;;;5056997;28;21102;-82
2024/03/03 04:06:19;;;;;;;24.10;18.27;;;;;;;;;;5056700;28;20388;-82
2024/03/03 04:08:45;;;;;;;22.20;18.20;;;;;;;;;;5056509;28;20389;-82
2024/03/03 04:11:11;;;;;;;23.02;18.27;;;;;;;;;;5056868;28;20454;-82
2024/03/03 04:13:37;;;;;;;22.63;17.55;;;;;;;;;;5056620;28;20939;-82
2024/03/03 04:16:03;;;;;;;23.93;18.77;;;;;;;;;;5056446;28;20397;-82
2024/03/03 04:18:29;;;;;;;21.65;17.20;;;;;;;;;;5056338;28;20759;-82
2024/03/03 04:20:55;;;;;;;22.35;18.50;;;;;;;;;;5056265;28;20416;-82
2024/03/03 04:23:21;;;;;;;23.17;17.70;;;;;;;;;;5056137;28;20568;-82
2024/03/03 04:25:47;;;;;;;21.58;17.48;;;;;;;;;;5056463;28;20387;-82
2024/03/03 04:28:13;;;;;;;20.70;17.70;;;;;;;;;;5056203;28;20373;-82
2024/03/03 04:30:39;;;;;;;22.13;17.70;;;;;;;;;;5055674;28;20384;-82
2024/03/03 04:33:05;;;;;;;21.60;17.98;;;;;;;;;;5056220;28;20384;-81
2024/03/03 04:35:31;;;;;;;23.17;17.50;;;;;;;;;;5055869;28;20805;-82
2024/03/03 04:37:57;;;;;;;22.58;17.77;;;;;;;;;;5056027;28;20381;-82
2024/03/03 04:40:23;;;;;;;21.42;18.30;;;;;;;;;;5055792;28;20915;-82
2024/03/03 04:42:49;;;;;;;23.67;18.75;;;;;;;;;;5056142;28;20401;-82
2024/03/03 04:45:15;;;;;;;22.47;18.33;;;;;;;;;;5055686;28;20388;-82
2024/03/03 04:47:41;;;;;;;22.55;18.23;;;;;;;;;;5055522;28;20514;-82
2024/03/03 04:50:08;;;;;;;21.10;17.77;;;;;;;;;;5055837;28;20409;-82
2024/03/03 04:52:37;;;;;;;21.15;17.77;;;;;;;;;;5056219;28;20459;-82
2024/03/03 04:55:04;;;;;;;22.17;18.10;;;;;;;;;;5056019;28;20448;-82
2024/03/03 04:57:30;;;;;;;21.90;18.52;;;;;;;;;;5055322;28;20374;-82
2024/03/03 04:59:56;;;;;;;24.80;19.45;;;;;;;;;;5055546;28;20405;-82
2024/03/03 05:02:23;;;;;;;20.65;17.98;;;;;;;;;;5055225;28;20382;-82
2024/03/03 05:04:49;;;;;;;22.63;18.90;;;;;;;;;;5055647;28;20381;-82
2024/03/03 05:07:16;;;;;;;22.40;19.02;;;;;;;;;;5056933;28;20377;-82
2024/03/03 05:09:42;;;;;;;22.20;18.40;;;;;;;;;;5055968;28;20381;-82
2024/03/03 05:12:08;;;;;;;22.20;18.17;;;;;;;;;;5055456;28;20378;-82
2024/03/03 05:14:34;;;;;;;20.60;18.23;;;;;;;;;;5055478;28;20389;-81
2024/03/03 05:17:01;;;;;;;22.15;18.15;;;;;;;;;;5055504;28;20369;-82
2024/03/03 05:19:27;;;;;;;20.15;17.52;;;;;;;;;;5052924;28;20421;-82
2024/03/03 05:21:53;;;;;;;22.13;18.27;;;;;;;;;;5055209;28;20443;-82
2024/03/03 05:24:21;;;;;;;22.63;18.42;;;;;;;;;;5055281;28;20381;-82
2024/03/03 05:26:47;;;;;;;21.92;18.30;;;;;;;;;;5053747;28;20374;-82
2024/03/03 05:29:13;;;;;;;19.53;17.43;;;;;;;;;;5053608;28;20441;-82
2024/03/03 05:31:43;;;;;;;22.17;17.70;;;;;;;;;;5055029;28;20393;-82
2024/03/03 05:34:12;;;;;;;21.38;18.13;;;;;;;;;;5056339;28;20381;-82
2024/03/03 05:36:40;;;;;;;20.73;17.42;;;;;;;;;;5055340;28;20386;-82
2024/03/03 05:39:06;;;;;;;20.48;17.27;;;;;;;;;;5056802;28;20377;-82
2024/03/03 05:41:32;;;;;;;20.73;18.08;;;;;;;;;;5056467;28;20731;-82
2024/03/03 05:43:59;;;;;;;20.83;16.77;;;;;;;;;;5053364;28;20721;-82
2024/03/03 05:46:25;;;;;;;18.83;16.77;;;;;;;;;;5054753;28;20377;-82
2024/03/03 05:48:51;;;;;;;19.02;17.00;;;;;;;;;;5054313;28;20492;-81
2024/03/03 05:51:17;;;;;;;18.95;16.95;;;;;;;;;;5054289;28;20474;-82
2024/03/03 05:53:43;;;;;;;18.83;16.65;;;;;;;;;;5044835;28;20384;-82
2024/03/03 05:56:12;;;;;;;19.83;17.48;;;;;;;;;;5052012;28;20429;-81
2024/03/03 05:58:38;;;;;;;18.88;16.73;;;;;;;;;;5053613;28;20382;-82
2024/03/03 06:01:04;;;;;;;18.60;16.60;;;;;;;;;;5054299;28;20503;-81
2024/03/03 06:03:30;;;;;;;18.48;16.58;;;;;;;;;;5054521;28;20374;-81
2024/03/03 06:05:56;;;;;;;17.80;15.90;;;;;;;;;;5054508;28;20373;-81
2024/03/03 06:08:22;;;;;;;19.23;16.83;;;;;;;;;;5054917;28;20841;-81
2024/03/03 06:10:48;;;;;;;19.23;16.58;;;;;;;;;;5053958;28;20408;-81
2024/03/03 06:13:14;;;;;;;18.50;16.50;;;;;;;;;;5054270;28;20492;-81
2024/03/03 06:15:40;;;;;;;17.77;15.95;;;;;;;;;;5054616;28;20385;-81
2024/03/03 06:18:06;;;;;;;18.48;16.40;;;;;;;;;;5054418;28;20446;-81
2024/03/03 06:20:32;;;;;;;19.80;16.73;;;;;;;;;;5054032;28;20397;-81
2024/03/03 06:22:59;;;;;;;18.60;16.60;;;;;;;;;;5054219;28;20894;-82
2024/03/03 06:25:25;;;;;;;19.25;17.25;;;;;;;;;;5053088;28;20382;-82
2024/03/03 06:27:51;;;;;;;18.27;16.40;;;;;;;;;;5054235;28;20392;-81
2024/03/03 06:30:16;;;;;;;19.38;16.83;;;;;;;;;;5053840;28;20413;-81
2024/03/03 06:32:42;;;;;;;19.87;17.47;;;;;;;;;;5054042;28;20735;-81
2024/03/03 06:35:12;;;;;;;19.35;17.30;;;;;;;;;;5053878;28;20393;-80
2024/03/03 06:37:38;;;;;;;18.98;16.70;;;;;;;;;;5053717;28;20406;-80
2024/03/03 06:40:05;;;;;;;19.05;16.95;;;;;;;;;;5053818;28;20437;-81
2024/03/03 06:42:34;;;;;;;18.08;16.17;;;;;;;;;;5053740;28;20385;-81
2024/03/03 06:45:00;;;;;;;18.10;16.20;;;;;;;;;;5053880;28;20381;-81
2024/03/03 06:47:29;;;;;;;18.63;16.63;;;;;;;;;;5053232;28;20431;-82
2024/03/03 06:49:55;;;;;;;17.38;15.65;;;;;;;;;;5053170;28;20935;-81
2024/03/03 06:52:22;;;;;;;19.10;15.93;;;;;;;;;;5053035;28;20393;-81
2024/03/03 06:54:48;;;;;;;16.80;15.00;;;;;;;;;;5053182;28;20377;-82
2024/03/03 06:57:14;;;;;;;16.90;15.10;;;;;;;;;;5052543;28;20851;-81
2024/03/03 06:59:40;;;;;;;18.85;15.65;;;;;;;;;;5053077;28;20389;-81
2024/03/03 07:02:07;;;;;;;17.48;15.18;;;;;;;;;;5053626;28;20392;-80
2024/03/03 07:04:33;;;;;;;16.23;14.50;;;;;;;;;;5053397;28;20386;-81
2024/03/03 07:06:59;;;;;;;16.80;15.07;;;;;;;;;;5053336;28;20500;-81
2024/03/03 07:09:25;;;;;;;16.20;14.50;;;;;;;;;;5053598;28;20794;-81
2024/03/03 07:11:51;;;;;;;15.32;13.82;;;;;;;;;;5057176;28;20437;-82
2024/03/03 07:14:18;;;;;;;16.70;14.73;;;;;;;;;;5057370;28;20381;-81
2024/03/03 07:16:44;;;;;;;15.55;13.80;;;;;;;;;;5057139;28;20389;-81
2024/03/03 07:19:10;;;;;;;15.27;13.68;;;;;;;;;;5057851;28;20408;-81
2024/03/03 07:21:36;;;;;;;15.68;13.98;;;;;;;;;;5056921;28;20417;-82
2024/03/03 07:24:02;;;;;;;14.75;13.25;;;;;;;;;;5057621;28;20407;-81
2024/03/03 07:26:28;;;;;;;15.02;13.52;;;;;;;;;;5057291;28;20369;-81
2024/03/03 07:28:54;;;;;;;14.45;13.05;;;;;;;;;;5057273;28;20732;-81
2024/03/03 07:31:20;;;;;;;15.10;13.60;;;;;;;;;;5057513;28;20385;-82
2024/03/03 07:33:46;;;;;;;14.90;13.40;;;;;;;;;;5057463;28;20472;-81
2024/03/03 07:36:12;;;;;;;14.27;12.77;;;;;;;;;;5057352;28;20386;-81
2024/03/03 07:38:38;;;;;;;14.45;12.95;;;;;;;;;;5057082;28;20852;-81
2024/03/03 07:41:04;;;;;;;14.20;12.87;;;;;;;;;;5057084;28;20488;-81
2024/03/03 07:43:30;;;;;;;14.00;12.68;;;;;;;;;;5057274;28;20378;-81
2024/03/03 07:45:57;;;;;;;14.27;12.83;;;;;;;;;;5056913;28;20382;-81
2024/03/03 07:48:23;;;;;;;12.27;11.18;;;;;;;;;;5056635;28;20394;-81
2024/03/03 07:50:49;;;;;;;13.85;12.52;;;;;;;;;;5051603;28;20466;-81
2024/03/03 07:53:16;;;;;;;13.50;12.27;;;;;;;;;;5051579;28;20387;-81
2024/03/03 07:55:42;;;;;;;14.30;12.90;;;;;;;;;;5054473;28;20381;-82
2024/03/03 07:58:08;;;;;;;13.85;12.52;;;;;;;;;;5057073;28;20481;-81
2024/03/03 08:00:34;;;;;;;13.27;12.00;;;;;;;;;;5056572;28;20405;-81
2024/03/03 08:03:07;;;;;;;13.40;12.13;;;;;;;;;;5056746;28;20393;-81
2024/03/03 08:05:33;;;;;;;14.10;12.70;;;;;;;;;;5056539;28;20378;-81
2024/03/03 08:08:00;;;;;;;16.47;14.67;;;;;;;;;;5056506;28;20410;-81
2024/03/03 08:10:26;;;;;;;16.52;14.50;;;;;;;;;;5056714;28;20431;-81
2024/03/03 08:12:52;;;;;;;14.02;12.73;;;;;;;;;;5056321;28;20384;-81
2024/03/03 08:15:18;;;;;;;14.35;12.95;;;;;;;;;;5056797;28;20385;-81
2024/03/03 08:17:44;;;;;;;15.30;13.70;;;;;;;;;;5056337;28;20392;-80
2024/03/03 08:20:11;;;;;;;13.82;12.35;;;;;;;;;;5057052;28;20423;-81
2024/03/03 08:22:40;;;;;;;13.77;12.48;;;;;;;;;;5056445;28;20381;-80
2024/03/03 08:25:08;;;;;;;14.55;13.05;;;;;;;;;;5056710;28;20851;-80
2024/03/03 08:27:34;;;;;;;13.40;12.10;;;;;;;;;;5056729;28;20381;-81
2024/03/03 08:30:00;;;;;;;13.88;12.57;;;;;;;;;;5056947;28;20398;-81
2024/03/03 08:32:26;;;;;;;13.65;12.27;;;;;;;;;;5057130;28;20385;-81
2024/03/03 08:34:52;;;;;;;13.20;12.00;;;;;;;;;;5056330;28;20750;-81
2024/03/03 08:37:18;;;;;;;12.53;11.40;;;;;;;;;;5056416;28;20480;-81
2024/03/03 08:39:44;;;;;;;13.68;12.25;;;;;;;;;;5056458;28;20392;-80
2024/03/03 08:42:10;;;;;;;12.25;11.05;;;;;;;;;;5056051;28;20782;-80
2024/03/03 08:44:36;;;;;;;13.10;11.88;;;;;;;;;;5056370;28;20381;-81
2024/03/03 08:47:02;;;;;;;12.05;10.95;;;;;;;;;;5056065;28;20443;-81
2024/03/03 08:49:28;;;;;;;12.38;11.27;;;;;;;;;;5056172;28;20500;-81
2024/03/03 08:51:54;;;;;;;12.50;11.32;;;;;;;;;;5055950;28;20472;-80
2024/03/03 08:54:20;;;;;;;14.02;12.68;;;;;;;;;;5055748;28;20412;-80
2024/03/03 08:56:46;;;;;;;13.25;11.95;;;;;;;;;;5056248;28;20920;-81
2024/03/03 08:59:12;;;;;;;13.38;12.00;;;;;;;;;;5055766;28;20469;-80
2024/03/03 09:01:38;;;;;;;13.85;12.52;;;;;;;;;;5056142;28;20437;-81
2024/03/03 09:04:04;;;;;;;13.60;12.20;;;;;;;;;;5056770;28;20511;-81
2024/03/03 09:06:30;;;;;;;14.02;12.63;;;;;;;;;;5055842;28;20378;-81
2024/03/03 09:08:56;;;;;;;13.68;12.30;;;;;;;;;;5056017;28;20393;-81
2024/03/03 09:11:22;;;;;;;14.02;12.60;;;;;;;;;;5055932;28;20385;-81
2024/03/03 09:13:48;;;;;;;13.50;12.20;;;;;;;;;;5055903;28;20392;-81
2024/03/03 09:16:14;;;;;;;13.43;12.23;;;;;;;;;;5055090;28;20374;-81
2024/03/03 09:18:40;;;;;;;12.73;11.50;;;;;;;;;;5055787;28;20395;-81
2024/03/03 09:21:07;;;;;;;13.55;12.25;;;;;;;;;;5056141;28;20462;-81
2024/03/03 09:23:33;;;;;;;13.38;11.98;;;;;;;;;;5055292;28;20473;-81
2024/03/03 09:25:59;;;;;;;13.15;11.65;;;;;;;;;;5054461;28;20790;-81
2024/03/03 09:28:26;;;;;;;13.18;11.90;;;;;;;;;;5055224;28;20411;-81
2024/03/03 09:30:52;;;;;;;13.65;12.25;;;;;;;;;;5055010;28;20465;-81
2024/03/03 09:33:18;;;;;;;12.23;11.02;;;;;;;;;;5054290;28;20778;-81
2024/03/03 09:35:44;;;;;;;12.02;10.93;;;;;;;;;;5055076;28;20562;-81
2024/03/03 09:38:10;;;;;;;11.90;10.75;;;;;;;;;;5055082;28;20389;-81
2024/03/03 09:40:36;;;;;;;13.30;12.07;;;;;;;;;;5055080;28;20406;-82
2024/03/03 09:43:08;;;;;;;12.98;11.57;;;;;;;;;;5055598;28;20377;-81
2024/03/03 09:45:34;;;;;;;11.77;10.68;;;;;;;;;;5055799;28;20385;-82
2024/03/03 09:48:02;;;;;;;11.25;10.20;;;;;;;;;;5052053;28;20369;-82
2024/03/03 09:50:28;;;;;;;11.07;10.02;;;;;;;;;;5055122;28;20448;-82
2024/03/03 09:52:58;;;;;;;11.43;10.35;;;;;;;;;;5055259;28;20445;-82
2024/03/03 09:55:28;;;;;;;10.52;9.63;;;;;;;;;;5054671;28;20389;-82
2024/03/03 09:57:54;;;;;;;11.33;10.30;;;;;;;;;;5055336;28;20462;-81
2024/03/03 10:00:20;;;;;;;10.93;9.93;;;;;;;;;;5055099;28;20508;-81
2024/03/03 10:02:48;;;;;;;10.70;9.70;;;;;;;;;;5044326;28;20384;-81
2024/03/03 10:05:15;;;;;;;10.65;9.75;;;;;;;;;;5054968;28;20464;-82
2024/03/03 10:07:48;;;;;;;11.73;10.63;;;;;;;;;;5054698;28;20735;-80
2024/03/03 10:10:19;;;;;;;10.85;9.85;;;;;;;;;;5054327;28;20377;-81
2024/03/03 10:12:46;;;;;;;9.65;8.75;;;;;;;;;;5054520;28;20736;-82
2024/03/03 10:15:12;;;;;;;10.05;9.15;;;;;;;;;;5054215;28;20377;-82
2024/03/03 10:17:38;;;;;;;9.50;8.65;;;;;;;;;;5054557;28;20382;-82
2024/03/03 10:20:08;;;;;;;13.98;12.68;;;;;;;;;;5054927;28;20731;-83
2024/03/03 10:22:34;;;;;;;9.90;9.00;;;;;;;;;;5054498;28;20809;-83
2024/03/03 10:25:18;;;;;;;9.65;8.65;;;;;;;;;;5053852;28;20373;-81
2024/03/03 10:27:45;;;;;;;9.32;8.52;;;;;;;;;;5054079;28;20386;-83
2024/03/03 10:30:12;;;;;;;8.63;7.90;;;;;;;;;;5053942;28;20377;-80
2024/03/03 10:32:42;;;;;;;8.90;8.10;;;;;;;;;;5054367;28;20931;-81
2024/03/03 10:35:09;;;;;;;8.43;7.70;;;;;;;;;;5054203;28;20453;-81
2024/03/03 10:37:35;;;;;;;9.27;8.40;;;;;;;;;;5054638;28;20789;-81
2024/03/03 10:40:01;;;;;;;9.07;8.27;;;;;;;;;;5054470;28;20386;-81
2024/03/03 10:42:30;;;;;;;8.63;7.93;;;;;;;;;;5054911;28;20405;-81
2024/03/03 10:44:56;;;;;;;8.90;8.10;;;;;;;;;;5056161;28;20369;-81
2024/03/03 10:47:23;;;;;;;8.23;7.53;;;;;;;;;;5061157;28;20377;-82
2024/03/03 10:49:49;;;;;;;7.63;7.03;;;;;;;;;;5062250;28;20839;-81
2024/03/03 10:52:15;;;;;;;7.25;6.65;;;;;;;;;;5061716;28;20472;-81
2024/03/03 10:54:42;;;;;;;7.70;7.00;;;;;;;;;;5060501;28;20715;-82
2024/03/03 10:57:12;;;;;;;8.00;7.30;;;;;;;;;;5060979;28;20388;-83
2024/03/03 10:59:39;;;;;;;8.27;7.57;;;;;;;;;;5061768;28;20378;-82
2024/03/03 11:02:06;;;;;;;7.30;6.60;;;;;;;;;;5061554;28;20455;-82
2024/03/03 11:04:33;;;;;;;7.32;6.72;;;;;;;;;;5061377;28;20446;-82
2024/03/03 11:07:00;;;;;;;7.43;6.82;;;;;;;;;;5061615;28;20443;-83
2024/03/03 11:09:27;;;;;;;6.50;6.00;;;;;;;;;;5061960;28;20704;-82
2024/03/03 11:12:01;;;;;;;6.20;5.70;;;;;;;;;;5061127;28;20391;-83
2024/03/03 11:14:35;;;;;;;6.20;5.70;;;;;;;;;;5060874;28;20381;-82
2024/03/03 11:17:03;;;;;;;6.18;5.68;;;;;;;;;;5059803;28;20382;-82
2024/03/03 11:19:46;;;;;;;7.28;6.57;;;;;;;;;;5061732;28;20380;-83
2024/03/03 11:22:17;;;;;;;6.95;6.20;;;;;;;;;;5049379;28;20468;-82
2024/03/03 11:24:45;;;;;;;6.68;6.07;;;;;;;;;;5061406;28;20847;-83
2024/03/03 11:27:11;;;;;;;7.20;6.60;;;;;;;;;;5060796;28;20511;-82
2024/03/03 11:29:38;;;;;;;7.82;6.70;;;;;;;;;;5060825;28;20377;-82
2024/03/03 11:32:04;;;;;;;6.40;5.90;;;;;;;;;;5058795;28;20409;-82
2024/03/03 11:34:32;;;;;;;6.78;6.18;;;;;;;;;;5061447;28;20381;-83
2024/03/03 11:36:58;;;;;;;7.25;6.65;;;;;;;;;;5060905;28;20415;-82
2024/03/03 11:39:24;;;;;;;7.40;6.80;;;;;;;;;;5060782;28;20874;-83
2024/03/03 11:41:52;;;;;;;6.63;6.13;;;;;;;;;;5060925;28;20401;-82
2024/03/03 11:44:33;;;;;;;6.63;6.07;;;;;;;;;;5060889;28;20378;-83
2024/03/03 11:46:59;;;;;;;6.20;5.70;;;;;;;;;;5058039;28;20385;-83
2024/03/03 11:49:25;;;;;;;7.10;6.50;;;;;;;;;;5060650;28;20493;-82
2024/03/03 11:51:51;;;;;;;6.85;6.20;;;;;;;;;;5060616;28;20381;-82
2024/03/03 11:54:29;;;;;;;6.43;5.82;;;;;;;;;;5060756;28;20408;-83
2024/03/03 11:56:58;;;;;;;5.23;4.80;;;;;;;;;;5057084;28;20867;-82
2024/03/03 11:59:53;;;;;;;5.22;4.82;;;;;;;;;;5057565;28;20736;-82
2024/03/03 12:02:19;;;;;;;5.75;5.25;;;;;;;;;;5052708;28;20386;-82
2024/03/03 12:04:48;;;;;;;5.68;5.22;;;;;;;;;;5056740;28;20499;-82
2024/03/03 12:07:18;;;;;;;5.43;5.03;;;;;;;;;;5048330;28;20445;-82
2024/03/03 12:09:45;;;;;;;6.10;5.60;;;;;;;;;;5057170;28;20469;-83
2024/03/03 12:12:11;;;;;;;5.40;5.00;;;;;;;;;;5056913;28;20878;-83
2024/03/03 12:14:40;;;;;;;6.80;6.20;;;;;;;;;;5056293;28;20389;-83
2024/03/03 12:17:07;;;;;;;6.72;6.13;;;;;;;;;;5056946;28;20469;-82
2024/03/03 12:19:33;;;;;;;5.38;4.95;;;;;;;;;;5056817;28;20389;-82
2024/03/03 12:22:00;;;;;;;5.13;4.63;;;;;;;;;;5056358;28;20794;-83
2024/03/03 12:24:26;;;;;;;4.80;4.40;;;;;;;;;;5057127;28;20403;-83
2024/03/03 12:26:52;;;;;;;4.72;4.32;;;;;;;;;;5054111;28;20373;-82
2024/03/03 12:29:18;;;;;;;4.22;3.92;;;;;;;;;;5046056;28;20404;-83
2024/03/03 12:31:44;;;;;;;4.40;4.10;;;;;;;;;;5056094;28;20389;-82
2024/03/03 12:34:10;;;;;;;4.30;4.00;;;;;;;;;;5055469;28;20389;-82
2024/03/03 12:36:36;;;;;;;4.13;3.80;;;;;;;;;;5056612;28;20902;-83
2024/03/03 12:39:08;;;;;;;4.23;3.93;;;;;;;;;;5056168;28;20424;-82
2024/03/03 12:41:35;;;;;;;3.80;3.50;;;;;;;;;;5057110;28;20397;-82
2024/03/03 12:44:01;;;;;;;4.13;3.80;;;;;;;;;;5056528;28;20833;-82
2024/03/03 12:46:27;;;;;;;4.05;3.65;;;;;;;;;;5054491;28;20493;-82
2024/03/03 12:48:53;;;;;;;3.95;3.63;;;;;;;;;;5052913;28;20401;-82
2024/03/03 12:51:19;;;;;;;5.13;3.42;;;;;;;;;;5056489;28;20795;-82
2024/03/03 12:53:46;;;;;;;3.97;3.60;;;;;;;;;;5056517;28;20413;-83
2024/03/03 12:56:19;;;;;;;3.13;2.85;;;;;;;;;;5056553;28;20397;-82
2024/03/03 12:58:46;;;;;;;3.70;3.20;;;;;;;;;;5056198;28;20378;-82
2024/03/03 13:01:15;;;;;;;3.42;3.13;;;;;;;;;;5055650;28;20405;-82
2024/03/03 13:03:43;;;;;;;4.15;3.75;;;;;;;;;;5056974;28;20373;-82
2024/03/03 13:06:15;;;;;;;3.50;3.20;;;;;;;;;;5057070;28;20786;-82
2024/03/03 13:08:42;;;;;;;3.70;3.40;;;;;;;;;;5056169;28;20756;-82
2024/03/03 13:11:11;;;;;;;4.50;3.40;;;;;;;;;;5056539;28;20942;-81
2024/03/03 13:13:38;;;;;;;3.70;3.40;;;;;;;;;;5055183;28;20863;-82
2024/03/03 13:16:05;;;;;;;3.27;2.97;;;;;;;;;;5056311;28;20774;-82
2024/03/03 13:18:31;;;;;;;3.20;2.90;;;;;;;;;;5055997;28;20374;-81
2024/03/03 13:21:07;;;;;;;2.97;2.78;;;;;;;;;;5056100;28;20420;-82
2024/03/03 13:23:33;;;;;;;3.50;3.20;;;;;;;;;;5056835;28;20460;-82
2024/03/03 13:25:59;;;;;;;3.00;2.80;;;;;;;;;;5056939;28;20397;-82
2024/03/03 13:28:25;;;;;;;2.78;2.58;;;;;;;;;;5056837;28;20859;-83
2024/03/03 13:31:01;;;;;;;2.83;2.63;;;;;;;;;;5056264;28;20382;-81
2024/03/03 13:33:38;;;;;;;2.92;2.72;;;;;;;;;;5055626;28;21617;-82
2024/03/03 13:36:06;;;;;;;3.00;2.80;;;;;;;;;;5056101;28;20381;-81
2024/03/03 13:38:32;;;;;;;3.05;2.75;;;;;;;;;;5055213;28;20378;-81
2024/03/03 13:40:58;;;;;;;2.90;2.70;;;;;;;;;;5055506;28;20488;-81
2024/03/03 13:43:24;;;;;;;3.08;2.80;;;;;;;;;;5055816;28;20413;-81
2024/03/03 13:45:50;;;;;;;2.65;2.40;;;;;;;;;;5055646;28;20404;-81
2024/03/03 13:48:17;;;;;;;2.53;2.33;;;;;;;;;;5054963;28;20389;-81
2024/03/03 13:50:43;;;;;;;2.53;2.33;;;;;;;;;;5055011;28;20385;-82
2024/03/03 13:53:09;;;;;;;2.53;1.98;;;;;;;;;;5055317;28;20377;-82
2024/03/03 13:55:35;;;;;;;2.30;2.10;;;;;;;;;;5053406;28;20382;-81
2024/03/03 13:58:02;;;;;;;2.85;2.00;;;;;;;;;;5054836;28;20863;-81
2024/03/03 14:00:31;;;;;;;2.45;1.90;;;;;;;;;;5054880;28;20899;-81
2024/03/03 14:02:57;;;;;;;3.13;2.20;;;;;;;;;;5055247;28;20377;-81
2024/03/03 14:05:23;;;;;;;2.30;1.90;;;;;;;;;;5055721;28;20430;-81
2024/03/03 14:07:51;;;;;;;2.30;2.10;;;;;;;;;;5055556;28;20370;-81
2024/03/03 14:10:17;;;;;;;2.15;1.95;;;;;;;;;;5055537;28;20457;-81
2024/03/03 14:12:43;;;;;;;2.08;1.75;;;;;;;;;;5055078;28;20413;-81
2024/03/03 14:15:09;;;;;;;2.10;2.00;;;;;;;;;;5053195;28;20377;-82
2024/03/03 14:17:35;;;;;;;3.00;1.95;;;;;;;;;;5055237;28;20464;-82
2024/03/03 14:20:01;;;;;;;1.83;1.70;;;;;;;;;;5054120;28;20385;-82
2024/03/03 14:22:27;;;;;;;2.47;1.90;;;;;;;;;;5055190;28;20426;-82